sensor_id;sensor_type;location;lat;lon;timestamp;pressure;altitude;pressure_sealevel;temperature;humidity
28027;BME280;15344;52.342;-1.290;2023-08-30T00:00:39;99509.10;;;16.72;80.99
28027;BME280;15344;52.342;-1.290;2023-08-30T00:03:05;99507.51;;;17.20;78.82
28027;BME280;15344;52.342;-1.290;2023-08-30T00:05:30;99500.14;;;17.19;77.31
28027;BME280;15344;52.342;-1.290;2023-08-30T00:07:55;99492.94;;;16.99;79.19
28027;BME280;15344;52.342;-1.290;2023-08-30T00:10:21;99487.86;;;16.51;83.86
28027;BME280;15344;52.342;-1.290;2023-08-30T00:12:46;99483.88;;;16.57;82.77
28027;BME280;15344;52.342;-1.290;2023-08-30T00:15:11;99481.81;;;16.64;82.85
28027;BME280;15344;52.342;-1.290;2023-08-30T00:17:36;99480.75;;;17.10;81.86
28027;BME280;15344;52.342;-1.290;2023-08-30T00:20:02;99480.59;;;16.53;83.34
28027;BME280;15344;52.342;-1.290;2023-08-30T00:22:27;99483.42;;;16.71;82.21
28027;BME280;15344;52.342;-1.290;2023-08-30T00:24:53;99484.81;;;17.01;82.17
28027;BME280;15344;52.342;-1.290;2023-08-30T00:27:18;99489.88;;;16.88;81.53
28027;BME280;15344;52.342;-1.290;2023-08-30T00:29:43;99491.94;;;16.69;82.13
28027;BME280;15344;52.342;-1.290;2023-08-30T00:32:09;99490.59;;;16.89;81.38
28027;BME280;15344;52.342;-1.290;2023-08-30T00:34:34;99490.19;;;16.41;83.28
28027;BME280;15344;52.342;-1.290;2023-08-30T00:36:59;99489.58;;;16.32;83.52
28027;BME280;15344;52.342;-1.290;2023-08-30T00:39:25;99489.20;;;16.72;82.52
28027;BME280;15344;52.342;-1.290;2023-08-30T00:41:50;99487.42;;;16.41;81.00
28027;BME280;15344;52.342;-1.290;2023-08-30T00:44:15;99482.04;;;16.52;81.85
28027;BME280;15344;52.342;-1.290;2023-08-30T00:46:41;99482.95;;;16.70;81.09
28027;BME280;15344;52.342;-1.290;2023-08-30T00:49:06;99481.95;;;16.30;81.06
28027;BME280;15344;52.342;-1.290;2023-08-30T00:51:31;99480.98;;;16.38;81.87
28027;BME280;15344;52.342;-1.290;2023-08-30T00:53:57;99478.90;;;16.47;82.06
28027;BME280;15344;52.342;-1.290;2023-08-30T00:56:22;99475.14;;;16.53;82.36
28027;BME280;15344;52.342;-1.290;2023-08-30T00:58:48;99475.38;;;16.31;82.57
28027;BME280;15344;52.342;-1.290;2023-08-30T01:01:12;99476.26;;;16.11;83.72
28027;BME280;15344;52.342;-1.290;2023-08-30T01:03:38;99477.47;;;16.37;82.44
28027;BME280;15344;52.342;-1.290;2023-08-30T01:06:04;99477.18;;;16.26;83.95
28027;BME280;15344;52.342;-1.290;2023-08-30T01:08:29;99474.18;;;16.36;82.30
28027;BME280;15344;52.342;-1.290;2023-08-30T01:11:01;99471.97;;;16.34;82.76
28027;BME280;15344;52.342;-1.290;2023-08-30T01:13:20;99468.23;;;16.32;83.43
28027;BME280;15344;52.342;-1.290;2023-08-30T01:15:47;99459.71;;;16.53;82.25
28027;BME280;15344;52.342;-1.290;2023-08-30T01:18:11;99461.20;;;16.04;81.73
28027;BME280;15344;52.342;-1.290;2023-08-30T01:20:38;99462.48;;;16.31;82.93
28027;BME280;15344;52.342;-1.290;2023-08-30T01:23:06;99459.95;;;16.38;81.42
28027;BME280;15344;52.342;-1.290;2023-08-30T01:25:33;99464.42;;;16.28;81.87
28027;BME280;15344;52.342;-1.290;2023-08-30T01:27:52;99467.65;;;16.58;82.19
28027;BME280;15344;52.342;-1.290;2023-08-30T01:30:17;99462.79;;;16.54;81.77
28027;BME280;15344;52.342;-1.290;2023-08-30T01:32:43;99461.32;;;16.47;81.12
28027;BME280;15344;52.342;-1.290;2023-08-30T01:35:08;99458.06;;;15.58;82.24
28027;BME280;15344;52.342;-1.290;2023-08-30T01:37:34;99456.43;;;16.16;80.71
28027;BME280;15344;52.342;-1.290;2023-08-30T01:39:59;99454.33;;;16.64;81.13
28027;BME280;15344;52.342;-1.290;2023-08-30T01:42:25;99449.17;;;16.08;81.42
28027;BME280;15344;52.342;-1.290;2023-08-30T01:44:51;99442.71;;;16.30;81.68
28027;BME280;15344;52.342;-1.290;2023-08-30T01:47:15;99437.85;;;16.42;80.89
28027;BME280;15344;52.342;-1.290;2023-08-30T01:49:40;99437.48;;;16.62;77.32
28027;BME280;15344;52.342;-1.290;2023-08-30T01:52:06;99426.85;;;15.64;80.44
28027;BME280;15344;52.342;-1.290;2023-08-30T01:54:31;99423.55;;;16.12;80.74
28027;BME280;15344;52.342;-1.290;2023-08-30T01:56:56;99423.77;;;15.91;80.20
28027;BME280;15344;52.342;-1.290;2023-08-30T01:59:21;99427.35;;;15.69;81.77
28027;BME280;15344;52.342;-1.290;2023-08-30T02:01:46;99433.70;;;15.80;82.87
28027;BME280;15344;52.342;-1.290;2023-08-30T02:04:12;99435.70;;;16.36;80.10
28027;BME280;15344;52.342;-1.290;2023-08-30T02:06:43;99432.33;;;15.83;82.36
28027;BME280;15344;52.342;-1.290;2023-08-30T02:09:07;99430.33;;;16.17;79.04
28027;BME280;15344;52.342;-1.290;2023-08-30T02:11:28;99429.87;;;15.96;81.55
28027;BME280;15344;52.342;-1.290;2023-08-30T02:13:54;99429.64;;;16.19;79.88
28027;BME280;15344;52.342;-1.290;2023-08-30T02:16:19;99427.88;;;15.97;78.29
28027;BME280;15344;52.342;-1.290;2023-08-30T02:18:44;99427.22;;;15.78;79.58
28027;BME280;15344;52.342;-1.290;2023-08-30T02:21:09;99426.29;;;15.89;81.16
28027;BME280;15344;52.342;-1.290;2023-08-30T02:23:34;99424.71;;;15.35;81.22
28027;BME280;15344;52.342;-1.290;2023-08-30T02:26:00;99423.75;;;15.36;83.17
28027;BME280;15344;52.342;-1.290;2023-08-30T02:28:25;99428.23;;;15.42;84.18
28027;BME280;15344;52.342;-1.290;2023-08-30T02:30:53;99429.82;;;15.52;83.73
28027;BME280;15344;52.342;-1.290;2023-08-30T02:33:15;99430.78;;;15.49;85.12
28027;BME280;15344;52.342;-1.290;2023-08-30T02:35:41;99431.79;;;16.17;84.83
28027;BME280;15344;52.342;-1.290;2023-08-30T02:38:06;99429.74;;;15.20;84.81
28027;BME280;15344;52.342;-1.290;2023-08-30T02:40:31;99428.47;;;15.91;84.30
28027;BME280;15344;52.342;-1.290;2023-08-30T02:42:56;99430.15;;;16.41;80.35
28027;BME280;15344;52.342;-1.290;2023-08-30T02:45:22;99426.85;;;16.11;82.18
28027;BME280;15344;52.342;-1.290;2023-08-30T02:47:48;99427.91;;;16.01;83.71
28027;BME280;15344;52.342;-1.290;2023-08-30T02:50:12;99427.45;;;16.18;85.55
28027;BME280;15344;52.342;-1.290;2023-08-30T02:52:38;99425.27;;;16.33;83.76
28027;BME280;15344;52.342;-1.290;2023-08-30T02:55:03;99424.53;;;16.48;82.46
28027;BME280;15344;52.342;-1.290;2023-08-30T02:57:28;99421.86;;;16.04;85.05
28027;BME280;15344;52.342;-1.290;2023-08-30T02:59:53;99422.20;;;16.49;83.19
28027;BME280;15344;52.342;-1.290;2023-08-30T03:02:18;99425.13;;;16.38;83.37
28027;BME280;15344;52.342;-1.290;2023-08-30T03:04:44;99423.47;;;16.30;83.50
28027;BME280;15344;52.342;-1.290;2023-08-30T03:07:09;99424.37;;;15.99;84.29
28027;BME280;15344;52.342;-1.290;2023-08-30T03:09:34;99425.28;;;16.90;81.19
28027;BME280;15344;52.342;-1.290;2023-08-30T03:12:00;99427.71;;;16.73;80.49
28027;BME280;15344;52.342;-1.290;2023-08-30T03:14:25;99425.61;;;16.52;82.94
28027;BME280;15344;52.342;-1.290;2023-08-30T03:16:50;99423.22;;;15.85;84.51
28027;BME280;15344;52.342;-1.290;2023-08-30T03:19:15;99423.23;;;16.72;83.38
28027;BME280;15344;52.342;-1.290;2023-08-30T03:21:42;99422.14;;;15.93;83.93
28027;BME280;15344;52.342;-1.290;2023-08-30T03:24:06;99426.72;;;16.76;83.18
28027;BME280;15344;52.342;-1.290;2023-08-30T03:26:31;99426.11;;;16.53;82.57
28027;BME280;15344;52.342;-1.290;2023-08-30T03:28:57;99421.26;;;16.97;81.29
28027;BME280;15344;52.342;-1.290;2023-08-30T03:31:22;99424.02;;;16.79;81.39
28027;BME280;15344;52.342;-1.290;2023-08-30T03:33:48;99425.90;;;16.91;81.73
28027;BME280;15344;52.342;-1.290;2023-08-30T03:36:14;99421.58;;;17.08;81.35
28027;BME280;15344;52.342;-1.290;2023-08-30T03:38:39;99424.17;;;17.20;82.16
28027;BME280;15344;52.342;-1.290;2023-08-30T03:41:03;99426.18;;;16.72;82.09
28027;BME280;15344;52.342;-1.290;2023-08-30T03:43:28;99425.38;;;17.05;81.75
28027;BME280;15344;52.342;-1.290;2023-08-30T03:45:54;99424.59;;;16.71;81.87
28027;BME280;15344;52.342;-1.290;2023-08-30T03:48:19;99423.24;;;17.04;81.68
28027;BME280;15344;52.342;-1.290;2023-08-30T03:50:44;99423.11;;;17.12;81.76
28027;BME280;15344;52.342;-1.290;2023-08-30T03:53:10;99418.15;;;17.00;82.62
28027;BME280;15344;52.342;-1.290;2023-08-30T03:55:36;99420.02;;;16.23;84.23
28027;BME280;15344;52.342;-1.290;2023-08-30T03:58:00;99415.19;;;17.02;81.68
28027;BME280;15344;52.342;-1.290;2023-08-30T04:00:26;99414.01;;;17.23;81.18
28027;BME280;15344;52.342;-1.290;2023-08-30T04:02:51;99415.65;;;17.15;79.20
28027;BME280;15344;52.342;-1.290;2023-08-30T04:05:16;99417.25;;;17.05;80.30
28027;BME280;15344;52.342;-1.290;2023-08-30T04:07:42;99415.60;;;16.60;82.66
28027;BME280;15344;52.342;-1.290;2023-08-30T04:10:07;99418.07;;;16.39;84.31
28027;BME280;15344;52.342;-1.290;2023-08-30T04:12:32;99420.57;;;16.34;83.65
28027;BME280;15344;52.342;-1.290;2023-08-30T04:14:57;99418.47;;;16.34;83.96
28027;BME280;15344;52.342;-1.290;2023-08-30T04:17:22;99411.93;;;16.99;81.68
28027;BME280;15344;52.342;-1.290;2023-08-30T04:19:51;99417.81;;;16.68;82.88
28027;BME280;15344;52.342;-1.290;2023-08-30T04:22:13;99413.86;;;16.58;84.02
28027;BME280;15344;52.342;-1.290;2023-08-30T04:24:38;99413.85;;;16.66;82.86
28027;BME280;15344;52.342;-1.290;2023-08-30T04:27:04;99410.92;;;16.15;83.27
28027;BME280;15344;52.342;-1.290;2023-08-30T04:29:29;99414.55;;;16.52;82.78
28027;BME280;15344;52.342;-1.290;2023-08-30T04:31:54;99409.50;;;16.58;82.67
28027;BME280;15344;52.342;-1.290;2023-08-30T04:34:19;99408.11;;;16.12;83.04
28027;BME280;15344;52.342;-1.290;2023-08-30T04:36:45;99406.76;;;15.93;84.10
28027;BME280;15344;52.342;-1.290;2023-08-30T04:39:12;99406.40;;;16.63;83.32
28027;BME280;15344;52.342;-1.290;2023-08-30T04:41:36;99404.98;;;16.19;83.60
28027;BME280;15344;52.342;-1.290;2023-08-30T04:44:01;99402.97;;;16.19;85.35
28027;BME280;15344;52.342;-1.290;2023-08-30T04:46:26;99401.08;;;16.07;85.79
28027;BME280;15344;52.342;-1.290;2023-08-30T04:48:52;99400.10;;;15.86;87.37
28027;BME280;15344;52.342;-1.290;2023-08-30T04:51:17;99399.79;;;15.63;89.66
28027;BME280;15344;52.342;-1.290;2023-08-30T04:53:42;99398.30;;;15.28;91.93
28027;BME280;15344;52.342;-1.290;2023-08-30T04:56:11;99397.27;;;15.16;91.01
28027;BME280;15344;52.342;-1.290;2023-08-30T04:58:33;99397.86;;;15.58;90.28
28027;BME280;15344;52.342;-1.290;2023-08-30T05:00:58;99397.43;;;14.75;94.35
28027;BME280;15344;52.342;-1.290;2023-08-30T05:03:23;99396.43;;;15.17;92.83
28027;BME280;15344;52.342;-1.290;2023-08-30T05:05:49;99401.76;;;15.23;93.21
28027;BME280;15344;52.342;-1.290;2023-08-30T05:08:14;99407.62;;;15.81;90.22
28027;BME280;15344;52.342;-1.290;2023-08-30T05:10:39;99406.00;;;15.67;90.31
28027;BME280;15344;52.342;-1.290;2023-08-30T05:13:05;99404.84;;;15.40;90.09
28027;BME280;15344;52.342;-1.290;2023-08-30T05:15:30;99412.60;;;15.59;90.65
28027;BME280;15344;52.342;-1.290;2023-08-30T05:17:55;99414.66;;;15.44;90.88
28027;BME280;15344;52.342;-1.290;2023-08-30T05:20:20;99417.94;;;16.05;89.20
28027;BME280;15344;52.342;-1.290;2023-08-30T05:22:46;99418.29;;;16.07;87.96
28027;BME280;15344;52.342;-1.290;2023-08-30T05:25:11;99420.59;;;15.70;88.86
28027;BME280;15344;52.342;-1.290;2023-08-30T05:27:36;99421.16;;;15.67;90.10
28027;BME280;15344;52.342;-1.290;2023-08-30T05:30:01;99422.63;;;15.25;91.25
28027;BME280;15344;52.342;-1.290;2023-08-30T05:32:27;99423.54;;;15.66;88.68
28027;BME280;15344;52.342;-1.290;2023-08-30T05:34:52;99419.34;;;15.94;87.83
28027;BME280;15344;52.342;-1.290;2023-08-30T05:37:17;99427.77;;;15.96;85.94
28027;BME280;15344;52.342;-1.290;2023-08-30T05:39:42;99425.43;;;16.21;85.90
28027;BME280;15344;52.342;-1.290;2023-08-30T05:42:08;99423.31;;;16.02;88.20
28027;BME280;15344;52.342;-1.290;2023-08-30T05:44:33;99424.92;;;15.76;87.40
28027;BME280;15344;52.342;-1.290;2023-08-30T05:46:58;99424.85;;;16.04;85.76
28027;BME280;15344;52.342;-1.290;2023-08-30T05:49:24;99427.82;;;14.73;89.13
28027;BME280;15344;52.342;-1.290;2023-08-30T05:51:50;99424.05;;;15.88;85.63
28027;BME280;15344;52.342;-1.290;2023-08-30T05:54:15;99418.35;;;15.41;87.66
28027;BME280;15344;52.342;-1.290;2023-08-30T05:56:40;99422.32;;;15.95;85.94
28027;BME280;15344;52.342;-1.290;2023-08-30T05:59:05;99426.24;;;15.70;87.29
28027;BME280;15344;52.342;-1.290;2023-08-30T06:01:31;99429.08;;;15.54;86.32
28027;BME280;15344;52.342;-1.290;2023-08-30T06:03:56;99426.34;;;15.89;86.19
28027;BME280;15344;52.342;-1.290;2023-08-30T06:06:21;99423.94;;;15.19;86.35
28027;BME280;15344;52.342;-1.290;2023-08-30T06:08:46;99423.79;;;15.69;86.57
28027;BME280;15344;52.342;-1.290;2023-08-30T06:11:12;99423.20;;;15.77;86.44
28027;BME280;15344;52.342;-1.290;2023-08-30T06:13:37;99422.95;;;15.76;86.79
28027;BME280;15344;52.342;-1.290;2023-08-30T06:16:02;99423.60;;;15.58;88.14
28027;BME280;15344;52.342;-1.290;2023-08-30T06:18:30;99423.93;;;16.10;85.50
28027;BME280;15344;52.342;-1.290;2023-08-30T06:20:53;99422.86;;;15.80;87.41
28027;BME280;15344;52.342;-1.290;2023-08-30T06:23:18;99424.22;;;16.11;85.15
28027;BME280;15344;52.342;-1.290;2023-08-30T06:25:43;99429.25;;;15.95;85.04
28027;BME280;15344;52.342;-1.290;2023-08-30T06:28:09;99429.88;;;16.23;85.38
28027;BME280;15344;52.342;-1.290;2023-08-30T06:30:34;99427.59;;;15.84;88.05
28027;BME280;15344;52.342;-1.290;2023-08-30T06:32:59;99433.26;;;15.53;89.85
28027;BME280;15344;52.342;-1.290;2023-08-30T06:35:24;99438.45;;;16.10;88.86
28027;BME280;15344;52.342;-1.290;2023-08-30T06:37:50;99433.08;;;15.82;90.76
28027;BME280;15344;52.342;-1.290;2023-08-30T06:40:15;99438.06;;;15.62;89.03
28027;BME280;15344;52.342;-1.290;2023-08-30T06:42:40;99443.96;;;16.24;87.42
28027;BME280;15344;52.342;-1.290;2023-08-30T06:45:06;99445.32;;;15.71;88.46
28027;BME280;15344;52.342;-1.290;2023-08-30T06:47:31;99443.50;;;15.82;88.70
28027;BME280;15344;52.342;-1.290;2023-08-30T06:49:56;99444.52;;;16.38;86.43
28027;BME280;15344;52.342;-1.290;2023-08-30T06:52:21;99442.92;;;16.60;84.36
28027;BME280;15344;52.342;-1.290;2023-08-30T06:54:46;99445.21;;;16.82;82.85
28027;BME280;15344;52.342;-1.290;2023-08-30T06:57:12;99442.78;;;16.21;85.27
28027;BME280;15344;52.342;-1.290;2023-08-30T06:59:37;99444.43;;;16.06;86.98
28027;BME280;15344;52.342;-1.290;2023-08-30T07:02:03;99445.42;;;16.79;84.83
28027;BME280;15344;52.342;-1.290;2023-08-30T07:04:28;99449.62;;;16.84;85.60
28027;BME280;15344;52.342;-1.290;2023-08-30T07:06:53;99454.07;;;16.87;86.35
28027;BME280;15344;52.342;-1.290;2023-08-30T07:09:18;99453.22;;;16.45;87.72
28027;BME280;15344;52.342;-1.290;2023-08-30T07:11:44;99455.05;;;16.73;87.30
28027;BME280;15344;52.342;-1.290;2023-08-30T07:14:09;99455.33;;;17.10;86.78
28027;BME280;15344;52.342;-1.290;2023-08-30T07:16:34;99455.10;;;16.91;88.62
28027;BME280;15344;52.342;-1.290;2023-08-30T07:18:59;99455.06;;;17.45;85.96
28027;BME280;15344;52.342;-1.290;2023-08-30T07:21:24;99461.75;;;16.82;89.26
28027;BME280;15344;52.342;-1.290;2023-08-30T07:23:50;99464.46;;;17.40;88.65
28027;BME280;15344;52.342;-1.290;2023-08-30T07:26:15;99458.48;;;18.43;85.60
28027;BME280;15344;52.342;-1.290;2023-08-30T07:28:40;99458.66;;;19.26;85.76
28027;BME280;15344;52.342;-1.290;2023-08-30T07:31:05;99455.05;;;19.36;79.14
28027;BME280;15344;52.342;-1.290;2023-08-30T07:33:30;99452.86;;;20.97;72.33
28027;BME280;15344;52.342;-1.290;2023-08-30T07:35:56;99452.98;;;21.49;67.40
28027;BME280;15344;52.342;-1.290;2023-08-30T07:38:20;99451.32;;;21.77;64.26
28027;BME280;15344;52.342;-1.290;2023-08-30T07:40:46;99449.11;;;21.93;61.49
28027;BME280;15344;52.342;-1.290;2023-08-30T07:43:11;99450.71;;;23.40;60.13
28027;BME280;15344;52.342;-1.290;2023-08-30T07:45:36;99451.83;;;23.88;56.41
28027;BME280;15344;52.342;-1.290;2023-08-30T07:48:01;99456.64;;;25.06;52.55
28027;BME280;15344;52.342;-1.290;2023-08-30T07:50:27;99459.28;;;25.16;50.39
28027;BME280;15344;52.342;-1.290;2023-08-30T07:52:53;99455.12;;;25.75;48.63
28027;BME280;15344;52.342;-1.290;2023-08-30T07:55:19;99453.20;;;26.54;50.18
28027;BME280;15344;52.342;-1.290;2023-08-30T07:57:45;99456.94;;;24.80;49.91
28027;BME280;15344;52.342;-1.290;2023-08-30T08:00:11;99450.65;;;26.14;48.51
28027;BME280;15344;52.342;-1.290;2023-08-30T08:02:36;99450.48;;;24.48;50.34
28027;BME280;15344;52.342;-1.290;2023-08-30T08:05:02;99444.08;;;23.50;51.11
28027;BME280;15344;52.342;-1.290;2023-08-30T08:07:28;99444.04;;;24.62;51.63
28027;BME280;15344;52.342;-1.290;2023-08-30T08:09:54;99443.86;;;24.42;50.83
28027;BME280;15344;52.342;-1.290;2023-08-30T08:12:20;99439.78;;;23.94;51.68
28027;BME280;15344;52.342;-1.290;2023-08-30T08:14:46;99440.31;;;22.71;56.11
28027;BME280;15344;52.342;-1.290;2023-08-30T08:17:11;99440.43;;;23.28;55.38
28027;BME280;15344;52.342;-1.290;2023-08-30T08:19:37;99438.75;;;24.01;54.29
28027;BME280;15344;52.342;-1.290;2023-08-30T08:22:03;99439.77;;;24.72;53.72
28027;BME280;15344;52.342;-1.290;2023-08-30T08:24:29;99436.45;;;23.99;55.80
28027;BME280;15344;52.342;-1.290;2023-08-30T08:26:54;99438.54;;;22.52;58.22
28027;BME280;15344;52.342;-1.290;2023-08-30T08:29:20;99443.90;;;22.57;59.82
28027;BME280;15344;52.342;-1.290;2023-08-30T08:31:45;99442.55;;;22.57;60.46
28027;BME280;15344;52.342;-1.290;2023-08-30T08:34:11;99446.41;;;22.45;59.73
28027;BME280;15344;52.342;-1.290;2023-08-30T08:36:35;99443.18;;;22.32;60.83
28027;BME280;15344;52.342;-1.290;2023-08-30T08:39:00;99446.27;;;22.36;61.86
28027;BME280;15344;52.342;-1.290;2023-08-30T08:41:29;99450.47;;;21.66;65.19
28027;BME280;15344;52.342;-1.290;2023-08-30T08:43:50;99454.02;;;20.98;71.23
28027;BME280;15344;52.342;-1.290;2023-08-30T08:46:16;99447.04;;;19.41;71.68
28027;BME280;15344;52.342;-1.290;2023-08-30T08:48:41;99446.04;;;19.30;75.64
28027;BME280;15344;52.342;-1.290;2023-08-30T08:51:05;99448.37;;;20.27;75.15
28027;BME280;15344;52.342;-1.290;2023-08-30T08:53:30;99444.06;;;20.02;69.20
28027;BME280;15344;52.342;-1.290;2023-08-30T08:55:57;99446.42;;;21.35;66.83
28027;BME280;15344;52.342;-1.290;2023-08-30T08:58:20;99444.49;;;20.95;65.74
28027;BME280;15344;52.342;-1.290;2023-08-30T09:00:46;99442.29;;;22.70;62.91
28027;BME280;15344;52.342;-1.290;2023-08-30T09:03:11;99439.77;;;23.85;60.66
28027;BME280;15344;52.342;-1.290;2023-08-30T09:05:37;99437.87;;;25.16;56.66
28027;BME280;15344;52.342;-1.290;2023-08-30T09:08:02;99438.19;;;25.04;52.55
28027;BME280;15344;52.342;-1.290;2023-08-30T09:10:27;99428.88;;;26.50;49.32
28027;BME280;15344;52.342;-1.290;2023-08-30T09:12:53;99431.14;;;26.35;48.20
28027;BME280;15344;52.342;-1.290;2023-08-30T09:15:19;99433.32;;;26.54;46.68
28027;BME280;15344;52.342;-1.290;2023-08-30T09:17:45;99437.15;;;25.75;47.48
28027;BME280;15344;52.342;-1.290;2023-08-30T09:20:12;99442.71;;;25.76;49.29
28027;BME280;15344;52.342;-1.290;2023-08-30T09:22:37;99439.35;;;24.33;49.98
28027;BME280;15344;52.342;-1.290;2023-08-30T09:25:02;99442.27;;;25.24;50.29
28027;BME280;15344;52.342;-1.290;2023-08-30T09:27:32;99441.08;;;24.20;50.68
28027;BME280;15344;52.342;-1.290;2023-08-30T09:29:58;99444.36;;;25.54;50.00
28027;BME280;15344;52.342;-1.290;2023-08-30T09:32:21;99440.64;;;23.65;50.62
28027;BME280;15344;52.342;-1.290;2023-08-30T09:34:46;99445.46;;;25.23;49.61
28027;BME280;15344;52.342;-1.290;2023-08-30T09:37:19;99444.74;;;24.17;49.77
28027;BME280;15344;52.342;-1.290;2023-08-30T09:39:37;99446.41;;;23.79;50.69
28027;BME280;15344;52.342;-1.290;2023-08-30T09:42:03;99445.79;;;25.24;49.42
28027;BME280;15344;52.342;-1.290;2023-08-30T09:44:29;99440.81;;;24.18;48.69
28027;BME280;15344;52.342;-1.290;2023-08-30T09:46:55;99441.81;;;23.54;51.08
28027;BME280;15344;52.342;-1.290;2023-08-30T09:49:21;99439.81;;;24.23;51.20
28027;BME280;15344;52.342;-1.290;2023-08-30T09:51:47;99438.30;;;23.43;51.55
28027;BME280;15344;52.342;-1.290;2023-08-30T09:54:15;99438.67;;;24.40;52.47
28027;BME280;15344;52.342;-1.290;2023-08-30T09:56:37;99436.96;;;25.15;51.81
28027;BME280;15344;52.342;-1.290;2023-08-30T09:59:03;99432.78;;;26.33;51.79
28027;BME280;15344;52.342;-1.290;2023-08-30T10:01:29;99426.29;;;25.85;45.16
28027;BME280;15344;52.342;-1.290;2023-08-30T10:03:56;99425.62;;;27.08;44.48
28027;BME280;15344;52.342;-1.290;2023-08-30T10:06:21;99424.41;;;26.75;42.72
28027;BME280;15344;52.342;-1.290;2023-08-30T10:08:47;99423.41;;;26.51;43.20
28027;BME280;15344;52.342;-1.290;2023-08-30T10:11:13;99418.17;;;26.60;44.17
28027;BME280;15344;52.342;-1.290;2023-08-30T10:13:39;99425.37;;;24.98;45.31
28027;BME280;15344;52.342;-1.290;2023-08-30T10:16:04;99430.54;;;25.45;45.90
28027;BME280;15344;52.342;-1.290;2023-08-30T10:18:32;99431.54;;;24.57;46.93
28027;BME280;15344;52.342;-1.290;2023-08-30T10:20:57;99429.89;;;23.19;48.77
28027;BME280;15344;52.342;-1.290;2023-08-30T10:23:21;99437.81;;;22.63;50.54
28027;BME280;15344;52.342;-1.290;2023-08-30T10:25:48;99438.63;;;22.89;51.16
28027;BME280;15344;52.342;-1.290;2023-08-30T10:28:13;99438.10;;;22.07;52.01
28027;BME280;15344;52.342;-1.290;2023-08-30T10:30:39;99438.59;;;21.44;53.25
28027;BME280;15344;52.342;-1.290;2023-08-30T10:33:12;99444.65;;;21.71;55.18
28027;BME280;15344;52.342;-1.290;2023-08-30T10:35:29;99446.76;;;22.88;57.36
28027;BME280;15344;52.342;-1.290;2023-08-30T10:37:55;99442.39;;;23.48;53.56
28027;BME280;15344;52.342;-1.290;2023-08-30T10:40:19;99439.44;;;24.49;51.31
28027;BME280;15344;52.342;-1.290;2023-08-30T10:42:44;99437.38;;;24.33;47.77
28027;BME280;15344;52.342;-1.290;2023-08-30T10:45:10;99434.82;;;23.67;48.57
28027;BME280;15344;52.342;-1.290;2023-08-30T10:47:37;99438.84;;;23.42;49.72
28027;BME280;15344;52.342;-1.290;2023-08-30T10:50:05;99433.94;;;23.86;46.58
28027;BME280;15344;52.342;-1.290;2023-08-30T10:52:28;99439.05;;;23.22;48.21
28027;BME280;15344;52.342;-1.290;2023-08-30T10:57:23;99436.96;;;23.33;49.58
28027;BME280;15344;52.342;-1.290;2023-08-30T11:02:13;99430.01;;;24.23;46.90
28027;BME280;15344;52.342;-1.290;2023-08-30T11:04:40;99421.02;;;23.50;47.65
28027;BME280;15344;52.342;-1.290;2023-08-30T11:07:03;99426.55;;;24.40;47.10
28027;BME280;15344;52.342;-1.290;2023-08-30T11:09:29;99425.94;;;24.42;48.67
28027;BME280;15344;52.342;-1.290;2023-08-30T11:11:55;99426.28;;;24.32;47.94
28027;BME280;15344;52.342;-1.290;2023-08-30T11:14:21;99429.91;;;24.46;48.63
28027;BME280;15344;52.342;-1.290;2023-08-30T11:16:46;99432.70;;;24.45;47.33
28027;BME280;15344;52.342;-1.290;2023-08-30T11:19:12;99424.00;;;24.01;48.38
28027;BME280;15344;52.342;-1.290;2023-08-30T11:21:39;99430.94;;;24.55;47.70
28027;BME280;15344;52.342;-1.290;2023-08-30T11:24:04;99431.13;;;22.75;48.23
28027;BME280;15344;52.342;-1.290;2023-08-30T11:26:30;99443.32;;;22.97;48.75
28027;BME280;15344;52.342;-1.290;2023-08-30T11:28:56;99444.23;;;22.66;52.12
28027;BME280;15344;52.342;-1.290;2023-08-30T11:31:22;99443.82;;;23.19;53.88
28027;BME280;15344;52.342;-1.290;2023-08-30T11:33:51;99440.91;;;23.67;51.02
28027;BME280;15344;52.342;-1.290;2023-08-30T11:36:13;99447.11;;;21.64;52.93
28027;BME280;15344;52.342;-1.290;2023-08-30T11:38:38;99442.54;;;21.81;54.96
28027;BME280;15344;52.342;-1.290;2023-08-30T11:41:03;99439.69;;;22.15;57.27
28027;BME280;15344;52.342;-1.290;2023-08-30T11:43:29;99434.97;;;21.37;54.21
28027;BME280;15344;52.342;-1.290;2023-08-30T11:45:56;99431.29;;;22.33;50.99
28027;BME280;15344;52.342;-1.290;2023-08-30T11:48:18;99432.58;;;21.99;51.03
28027;BME280;15344;52.342;-1.290;2023-08-30T11:50:43;99434.57;;;21.29;53.53
28027;BME280;15344;52.342;-1.290;2023-08-30T11:53:09;99429.43;;;22.04;52.59
28027;BME280;15344;52.342;-1.290;2023-08-30T11:55:34;99429.82;;;21.63;52.22
28027;BME280;15344;52.342;-1.290;2023-08-30T11:57:59;99436.86;;;21.91;53.90
28027;BME280;15344;52.342;-1.290;2023-08-30T12:00:24;99443.08;;;21.57;53.72
28027;BME280;15344;52.342;-1.290;2023-08-30T12:02:48;99437.44;;;22.08;55.98
28027;BME280;15344;52.342;-1.290;2023-08-30T12:05:14;99429.55;;;21.38;57.26
28027;BME280;15344;52.342;-1.290;2023-08-30T12:07:39;99425.17;;;21.99;57.26
28027;BME280;15344;52.342;-1.290;2023-08-30T12:10:04;99429.48;;;22.80;58.19
28027;BME280;15344;52.342;-1.290;2023-08-30T12:12:29;99427.33;;;22.84;58.68
28027;BME280;15344;52.342;-1.290;2023-08-30T12:14:55;99428.44;;;22.67;55.47
28027;BME280;15344;52.342;-1.290;2023-08-30T12:17:20;99432.38;;;22.13;56.26
28027;BME280;15344;52.342;-1.290;2023-08-30T12:19:44;99449.03;;;21.61;60.31
28027;BME280;15344;52.342;-1.290;2023-08-30T12:22:09;99445.84;;;20.88;68.57
28027;BME280;15344;52.342;-1.290;2023-08-30T12:24:40;99445.32;;;21.01;75.91
28027;BME280;15344;52.342;-1.290;2023-08-30T12:26:59;99443.13;;;20.57;71.48
28027;BME280;15344;52.342;-1.290;2023-08-30T12:29:24;99435.60;;;19.25;75.36
28027;BME280;15344;52.342;-1.290;2023-08-30T12:31:49;99436.76;;;20.93;65.95
28027;BME280;15344;52.342;-1.290;2023-08-30T12:34:14;99434.50;;;20.61;66.05
28027;BME280;15344;52.342;-1.290;2023-08-30T12:36:39;99433.16;;;20.75;62.55
28027;BME280;15344;52.342;-1.290;2023-08-30T12:39:04;99424.06;;;21.79;62.91
28027;BME280;15344;52.342;-1.290;2023-08-30T12:41:29;99426.62;;;21.59;60.81
28027;BME280;15344;52.342;-1.290;2023-08-30T12:43:54;99427.14;;;20.78;65.32